aviador You're here:

SVBM Decoded Metar

BARQUISIMETO in VENEZUELA
Report Time2018-06-22 22:00:00
UTC Time2018-06-22 23:00:47
Flight Rules vfr VFR
Wind110° at 05 kt
W.Decomp.*RWY 09: 4.4 kt HW 2.4 kt RCW
W.Rank110° ranks 1
Current wind is below 110° avg. (8.5)
Visibility9999 m
Phenomena:N/A
Clouds:Few 016 Hf
Overcast 300 Hf
Expected CloudBase > 1,200 ft AGL from Temp-Dew spread
Ceiling30,000 ft
Temp24°C (ISA +13)
Dew Point21°C (83% RH)
QNH1016 hPa
Density Alt3,753 ft
Elevation2,014 ft
Report Wrong Elevation
Raw Report
METAR SVBM 222200Z 11005KT 9999 FEW016 OVC300 24/21 Q1016=

Extra information for SVBM:More info

Metar Taf Metar & Taf Last 4 Metars F.Rules Stats Wind Profile Meteogram Temp Stats Airport Information Weather charts Add Link Nearby VenuesMetar ALERT Operation Metar Decoded Social comments